Time;durP1;ratioP1;P1;durP2;ratioP2;P2;SDS_P1;SDS_P2;PMS_P1;PMS_P2;Temp;Humidity;BMP_temperature;BMP_pressure;BME280_temperature;BME280_humidity;BME280_pressure;Samples;Min_cycle;Max_cycle;Signal;HPM_P1;HPM_P2
2023/10/09 00:01:44;;;;;;;4.82;1.30;;;;;;;-146.25;100.00;52364.13;2106151;28;21021;-64
2023/10/09 00:02:45;;;;;;;6.60;1.88;;;;;;;-146.25;100.00;52392.53;2104582;28;37821;-65
2023/10/09 00:03:54;;;;;;;6.45;1.90;;;;;;;-146.25;100.00;52339.81;2105059;28;34087;-64
2023/10/09 00:04:56;;;;;;;6.03;1.80;;;;;;;-146.25;100.00;52372.25;2105385;28;31051;-64
2023/10/09 00:05:58;;;;;;;4.70;1.77;;;;;;;-146.25;100.00;52360.09;2105323;28;37376;-64
2023/10/09 00:07:00;;;;;;;5.03;1.45;;;;;;;-146.25;100.00;52331.69;2105236;28;35253;-64
2023/10/09 00:08:03;;;;;;;3.90;1.70;;;;;;;-146.25;100.00;52374.28;2105417;28;37752;-64
2023/10/09 00:09:46;;;;;;;7.18;2.22;;;;;;;-146.25;100.00;52366.16;2105068;28;38218;-65
2023/10/09 00:10:48;;;;;;;6.07;2.00;;;;;;;-146.25;100.00;52368.19;2103928;28;32516;-64
2023/10/09 00:11:57;;;;;;;6.10;1.77;;;;;;;-146.25;100.00;52335.75;2105831;28;20087;-65
2023/10/09 00:12:59;;;;;;;7.82;1.80;;;;;;;-146.25;100.00;52349.94;2105322;28;39349;-65
2023/10/09 00:14:00;;;;;;;3.88;1.58;;;;;;;-146.25;100.00;52360.09;2105478;28;33869;-64
2023/10/09 00:15:11;;;;;;;4.55;1.90;;;;;;;-146.25;100.00;52364.13;2105588;28;33399;-64
2023/10/09 00:16:16;;;;;;;4.65;1.48;;;;;;;-146.25;100.00;52382.38;2105508;28;37940;-64
2023/10/09 00:17:18;;;;;;;5.72;2.00;;;;;;;-146.25;100.00;52370.22;2105784;28;20523;-64
2023/10/09 00:18:29;;;;;;;5.50;1.90;;;;;;;-146.25;100.00;52331.69;2105157;28;40685;-65
2023/10/09 00:19:31;;;;;;;6.75;2.20;;;;;;;-146.25;100.00;52343.88;2104929;28;28502;-67
2023/10/09 00:20:42;;;;;;;5.90;1.83;;;;;;;-146.25;100.00;52331.69;2105723;28;20036;-64
2023/10/09 00:21:48;;;;;;;8.13;2.05;;;;;;;-146.25;100.00;52354.00;2104636;28;36679;-65
2023/10/09 00:22:51;;;;;;;8.57;1.90;;;;;;;-146.25;100.00;52366.16;2104569;28;36332;-65
2023/10/09 00:23:59;;;;;;;7.60;2.03;;;;;;;-146.25;100.00;52408.75;2104712;28;39012;-64
2023/10/09 00:25:12;;;;;;;6.68;2.05;;;;;;;-146.25;100.00;52358.06;2105159;28;34024;-65
2023/10/09 00:26:16;;;;;;;7.90;2.17;;;;;;;-146.25;100.00;52380.38;2105335;28;34703;-65
2023/10/09 00:27:27;;;;;;;5.53;1.70;;;;;;;-146.25;100.00;52358.06;2105291;28;20045;-65
2023/10/09 00:28:28;;;;;;;7.43;2.25;;;;;;;-146.25;100.00;52356.03;2105755;28;27790;-65
2023/10/09 00:29:34;;;;;;;5.50;1.80;;;;;;;-146.25;100.00;52376.31;2112805;28;33430;-65
2023/10/09 00:30:41;;;;;;;4.38;1.95;;;;;;;-146.25;100.00;52374.28;2104606;28;27199;-65
2023/10/09 00:31:50;;;;;;;7.75;2.15;;;;;;;-146.25;100.00;52362.13;2097996;28;20083;-65
2023/10/09 00:32:59;;;;;;;8.60;2.10;;;;;;;-146.25;100.00;52380.38;2097320;28;29518;-65
2023/10/09 00:34:18;;;;;;;10.85;2.33;;;;;;;-146.25;100.00;52366.16;2104578;28;30617;-64
2023/10/09 00:36:50;;;;;;;5.65;1.80;;;;;;;-146.25;100.00;52345.91;2104674;28;20106;-65
2023/10/09 00:37:57;;;;;;;6.53;1.85;;;;;;;-146.25;100.00;52358.06;2105514;28;33618;-65
2023/10/09 00:39:11;;;;;;;6.80;2.10;;;;;;;-146.25;100.00;52333.72;2113333;28;20044;-65
2023/10/09 00:40:20;;;;;;;6.63;1.85;;;;;;;-146.25;100.00;52337.78;2104838;28;25630;-65
2023/10/09 00:41:24;;;;;;;5.60;1.73;;;;;;;-146.25;100.00;52398.59;2104519;28;33470;-64
2023/10/09 00:42:30;;;;;;;5.45;1.63;;;;;;;-146.25;100.00;52343.88;2104979;28;29781;-65
2023/10/09 00:43:35;;;;;;;6.50;1.77;;;;;;;-146.25;100.00;52390.50;2104749;28;20068;-66
2023/10/09 00:44:41;;;;;;;8.63;1.83;;;;;;;-146.25;100.00;52345.91;2096738;28;25812;-66
2023/10/09 00:45:44;;;;;;;6.35;1.85;;;;;;;-146.25;100.00;52351.97;2105362;28;20079;-66
2023/10/09 00:46:48;;;;;;;6.32;1.83;;;;;;;-146.25;100.00;52335.75;2104555;28;20302;-67
2023/10/09 00:47:56;;;;;;;8.07;2.38;;;;;;;-146.25;100.00;52339.81;2104668;28;33298;-66
2023/10/09 00:49:02;;;;;;;5.25;1.60;;;;;;;-146.25;100.00;52315.47;2105717;28;25973;-66
2023/10/09 00:50:21;;;;;;;5.18;1.77;;;;;;;-146.25;100.00;52323.59;2104637;28;30819;-66
2023/10/09 00:51:24;;;;;;;10.30;2.30;;;;;;;-146.25;100.00;52356.03;2105183;28;20133;-66
2023/10/09 00:52:53;;;;;;;6.15;1.85;;;;;;;-146.25;100.00;52360.09;2104247;28;31921;-67
2023/10/09 00:53:58;;;;;;;6.38;2.13;;;;;;;-146.25;100.00;52372.25;2104967;28;30147;-66
2023/10/09 00:55:04;;;;;;;5.43;2.20;;;;;;;-146.25;100.00;52333.72;2104224;28;31338;-67
2023/10/09 00:56:11;;;;;;;7.00;2.20;;;;;;;-146.25;100.00;52339.81;2096460;28;25878;-66
2023/10/09 00:57:15;;;;;;;6.85;1.90;;;;;;;-146.25;100.00;52358.06;2097126;28;28842;-66
2023/10/09 00:58:23;;;;;;;6.45;2.17;;;;;;;-146.25;100.00;52358.06;2105074;28;31825;-66
2023/10/09 00:59:25;;;;;;;8.77;2.30;;;;;;;-146.25;100.00;52329.66;2104324;28;28176;-66
2023/10/09 01:00:45;;;;;;;6.38;2.58;;;;;;;-146.25;100.00;52362.13;2105409;28;29603;-66
2023/10/09 01:01:56;;;;;;;5.97;2.35;;;;;;;-146.25;100.00;52347.91;2113538;28;20166;-66
2023/10/09 01:04:18;;;;;;;4.78;2.40;;;;;;;-146.25;100.00;52343.88;2106005;28;20040;-66
2023/10/09 01:05:20;;;;;;;8.57;2.63;;;;;;;-146.25;100.00;52331.69;2105080;28;26658;-66
2023/10/09 01:06:27;;;;;;;9.27;2.53;;;;;;;-146.25;100.00;52366.16;2105858;28;23514;-66
2023/10/09 01:07:31;;;;;;;4.80;2.40;;;;;;;-146.25;100.00;52341.84;2104226;28;33051;-66
2023/10/09 01:09:44;;;;;;;7.75;2.38;;;;;;;-146.25;100.00;52349.94;2105312;28;20088;-66
2023/10/09 01:12:07;;;;;;;7.78;2.72;;;;;;;-146.25;100.00;52341.84;2104675;28;29319;-66
2023/10/09 01:13:09;;;;;;;6.95;2.30;;;;;;;-146.25;100.00;52384.41;2104252;28;24201;-66
2023/10/09 01:14:11;;;;;;;8.45;2.97;;;;;;;-146.25;100.00;52366.16;2104361;28;27011;-66
2023/10/09 01:15:35;;;;;;;11.98;2.45;;;;;;;-146.25;100.00;52358.06;2105217;28;28417;-66
2023/10/09 01:16:35;;;;;;;7.55;2.50;;;;;;;-146.25;100.00;52347.91;2104851;28;30883;-66
2023/10/09 01:17:45;;;;;;;5.65;2.05;;;;;;;-146.25;100.00;52323.59;2105925;28;20881;-65
2023/10/09 01:18:57;;;;;;;6.03;2.67;;;;;;;-146.25;100.00;52343.88;2104724;28;27832;-66
2023/10/09 01:20:03;;;;;;;8.57;2.60;;;;;;;-146.25;100.00;52331.69;2104623;28;20123;-66
2023/10/09 01:21:06;;;;;;;9.57;2.25;;;;;;;-146.25;100.00;52360.09;2105621;28;29283;-65
2023/10/09 01:22:14;;;;;;;7.28;2.40;;;;;;;-146.25;100.00;52307.38;2105642;28;20941;-66
2023/10/09 01:23:16;;;;;;;7.25;2.60;;;;;;;-146.25;100.00;52331.69;2104694;28;20044;-66
2023/10/09 01:24:22;;;;;;;6.90;2.38;;;;;;;-146.25;100.00;52345.91;2104141;28;29163;-66
2023/10/09 01:25:24;;;;;;;7.47;2.35;;;;;;;-146.25;100.00;52321.56;2104852;28;20044;-65
2023/10/09 01:26:26;;;;;;;7.50;2.10;;;;;;;-146.25;100.00;52345.91;2104425;28;29275;-65
2023/10/09 01:27:32;;;;;;;6.25;2.33;;;;;;;-146.25;100.00;52307.38;2105389;28;23526;-65
2023/10/09 01:28:34;;;;;;;9.55;2.40;;;;;;;-146.25;100.00;52331.69;2104953;28;30469;-65
2023/10/09 01:29:35;;;;;;;5.70;2.08;;;;;;;-146.25;100.00;52321.56;2104182;28;25612;-65
2023/10/09 01:30:41;;;;;;;4.95;2.05;;;;;;;-146.25;100.00;52329.66;2104338;28;31833;-65
2023/10/09 01:32:36;;;;;;;6.25;2.45;;;;;;;-146.25;100.00;52323.59;2103631;28;28528;-65
2023/10/09 01:33:27;;;;;;;7.32;2.20;;;;;;;-146.25;100.00;52360.09;2094209;28;32089;-65
2023/10/09 01:34:49;;;;;;;4.80;2.38;;;;;;;-146.25;100.00;52392.53;2105346;28;27399;-65
2023/10/09 01:35:55;;;;;;;5.38;2.00;;;;;;;-146.25;100.00;52351.97;2104126;28;27883;-66
2023/10/09 01:37:05;;;;;;;9.55;2.70;;;;;;;-146.25;100.00;52388.47;2104633;28;30945;-67
2023/10/09 01:38:13;;;;;;;9.25;2.88;;;;;;;-146.25;100.00;52345.91;2104642;28;30421;-66
2023/10/09 01:39:25;;;;;;;6.47;2.50;;;;;;;-146.25;100.00;52329.66;2105099;28;22594;-67
2023/10/09 01:40:36;;;;;;;4.43;2.60;;;;;;;-146.25;100.00;52283.03;2111856;28;26421;-66
2023/10/09 01:41:46;;;;;;;7.38;3.15;;;;;;;-146.25;100.00;52335.75;2111703;28;27484;-68
2023/10/09 01:42:49;;;;;;;6.28;2.85;;;;;;;-146.25;100.00;52335.75;2105067;28;37109;-67
2023/10/09 01:43:55;;;;;;;6.65;2.78;;;;;;;-146.25;100.00;52360.09;2104647;28;23465;-68
2023/10/09 01:45:10;;;;;;;9.25;2.80;;;;;;;-146.25;100.00;52339.81;2104885;28;20598;-67
2023/10/09 01:46:16;;;;;;;5.88;2.85;;;;;;;-146.25;100.00;52337.78;2105104;28;20992;-67
2023/10/09 01:47:21;;;;;;;6.47;2.85;;;;;;;-146.25;100.00;52319.53;2105344;28;29880;-68
2023/10/09 01:48:24;;;;;;;8.07;3.13;;;;;;;-146.25;100.00;52335.75;2105176;28;30400;-68
2023/10/09 01:49:32;;;;;;;10.07;3.58;;;;;;;-146.25;100.00;52349.94;2112093;28;28375;-68
2023/10/09 01:50:35;;;;;;;5.07;2.75;;;;;;;-146.25;100.00;52343.88;2112644;28;23627;-68
2023/10/09 01:51:38;;;;;;;8.35;2.65;;;;;;;-146.25;100.00;52349.94;2104390;28;20096;-68
2023/10/09 01:52:42;;;;;;;8.70;2.88;;;;;;;-146.25;100.00;52368.19;2104652;28;20206;-68
2023/10/09 01:53:47;;;;;;;6.43;3.00;;;;;;;-146.25;100.00;52337.78;2104905;28;27399;-68
2023/10/09 01:54:51;;;;;;;7.07;3.20;;;;;;;-146.25;100.00;52341.84;2104114;28;30260;-67
2023/10/09 01:55:55;;;;;;;12.52;3.30;;;;;;;-146.25;100.00;52335.75;2096615;28;27175;-68
2023/10/09 01:56:57;;;;;;;6.15;2.80;;;;;;;-146.25;100.00;52325.63;2104345;28;21523;-67
2023/10/09 01:58:02;;;;;;;8.93;3.15;;;;;;;-146.25;100.00;52349.94;2105464;28;20088;-69
2023/10/09 01:59:08;;;;;;;8.55;3.63;;;;;;;-146.25;100.00;52354.00;2104574;28;20168;-67
2023/10/09 02:00:16;;;;;;;7.07;2.95;;;;;;;-146.25;100.00;52343.88;2104598;28;20822;-68
2023/10/09 02:01:18;;;;;;;7.63;3.20;;;;;;;-146.25;100.00;52343.88;2104808;28;20076;-67
2023/10/09 02:02:26;;;;;;;7.78;3.60;;;;;;;-146.25;100.00;52351.97;2103726;28;36804;-67
2023/10/09 02:03:31;;;;;;;7.03;3.40;;;;;;;-146.25;100.00;52366.16;2104576;28;24802;-67
2023/10/09 02:04:33;;;;;;;5.13;3.00;;;;;;;-146.25;100.00;52347.91;2105789;28;23982;-67
2023/10/09 02:05:36;;;;;;;7.35;3.60;;;;;;;-146.25;100.00;52329.66;2112802;28;28187;-67
2023/10/09 02:06:38;;;;;;;8.57;3.70;;;;;;;-146.25;100.00;52325.63;2112893;28;20140;-67
2023/10/09 02:07:40;;;;;;;9.70;3.47;;;;;;;-146.25;100.00;52356.03;2112401;28;34169;-67
2023/10/09 02:08:49;;;;;;;8.55;3.40;;;;;;;-146.25;100.00;52325.63;2105387;28;20033;-67
2023/10/09 02:09:53;;;;;;;6.93;3.70;;;;;;;-146.25;100.00;52347.91;2104302;28;25436;-67
2023/10/09 02:10:56;;;;;;;6.97;3.28;;;;;;;-146.25;100.00;52356.03;2097354;28;20052;-67
2023/10/09 02:11:58;;;;;;;11.05;3.78;;;;;;;-146.25;100.00;52343.88;2104467;28;30346;-66
2023/10/09 02:13:11;;;;;;;4.95;3.30;;;;;;;-146.25;100.00;52349.94;2096050;28;20134;-66
2023/10/09 02:14:19;;;;;;;9.68;3.65;;;;;;;-146.25;100.00;52325.63;2098241;28;20959;-66
2023/10/09 02:17:08;;;;;;;9.13;4.05;;;;;;;-146.25;100.00;52335.75;2112531;28;20048;-66
2023/10/09 02:19:35;;;;;;;6.05;3.30;;;;;;;-146.25;100.00;52333.72;2111578;28;20120;-66
2023/10/09 02:20:37;;;;;;;7.88;3.83;;;;;;;-146.25;100.00;52368.19;2095469;28;30185;-66
2023/10/09 02:21:40;;;;;;;7.78;4.10;;;;;;;-146.25;100.00;52305.34;2096036;28;22102;-66
2023/10/09 02:22:42;;;;;;;10.65;4.10;;;;;;;-146.25;100.00;52364.13;2104674;28;22512;-65
2023/10/09 02:23:49;;;;;;;9.60;4.05;;;;;;;-146.25;100.00;52323.59;2104015;28;31289;-66
2023/10/09 02:24:57;;;;;;;6.35;4.05;;;;;;;-146.25;100.00;52327.66;2112278;28;24335;-66
2023/10/09 02:26:05;;;;;;;9.63;3.85;;;;;;;-146.25;100.00;52372.25;2112284;28;24236;-66
2023/10/09 02:27:12;;;;;;;7.85;3.85;;;;;;;-146.25;100.00;52343.88;2105251;28;20040;-67
2023/10/09 02:28:17;;;;;;;7.63;3.47;;;;;;;-146.25;100.00;52339.81;2104316;28;30853;-66
2023/10/09 02:29:23;;;;;;;6.85;3.60;;;;;;;-146.25;100.00;52329.66;2104644;28;20036;-66
2023/10/09 02:30:29;;;;;;;11.75;4.18;;;;;;;-146.25;100.00;52364.13;2104836;28;20033;-66
2023/10/09 02:31:51;;;;;;;8.10;3.70;;;;;;;-146.25;100.00;52329.66;2104683;28;22990;-66
2023/10/09 02:33:06;;;;;;;8.65;3.95;;;;;;;-146.25;100.00;52331.69;2104582;28;31014;-66
2023/10/09 02:34:10;;;;;;;6.28;3.28;;;;;;;-146.25;100.00;52311.44;2104203;28;25302;-66
2023/10/09 02:35:38;;;;;;;9.50;3.50;;;;;;;-146.25;100.00;52341.84;2104636;28;20959;-66
2023/10/09 02:36:49;;;;;;;8.60;3.05;;;;;;;-146.25;100.00;52345.91;2103758;28;20037;-66
2023/10/09 02:37:52;;;;;;;7.95;3.10;;;;;;;-146.25;100.00;52321.56;2100664;28;24607;-65
2023/10/09 02:38:56;;;;;;;8.50;3.63;;;;;;;-146.25;100.00;52301.28;2104562;28;31165;-65
2023/10/09 02:40:02;;;;;;;8.15;3.22;;;;;;;-146.25;100.00;52343.88;2112500;28;24231;-65
2023/10/09 02:42:20;;;;;;;13.48;3.63;;;;;;;-146.25;100.00;52323.59;2103918;28;20052;-65
2023/10/09 02:43:25;;;;;;;7.72;2.90;;;;;;;-146.25;100.00;52337.78;2105779;28;31681;-65
2023/10/09 02:44:34;;;;;;;8.68;3.00;;;;;;;-146.25;100.00;52335.75;2103445;28;27160;-65
2023/10/09 02:45:46;;;;;;;7.45;3.22;;;;;;;-146.25;100.00;52341.84;2104847;28;29279;-65
2023/10/09 02:46:49;;;;;;;5.72;3.40;;;;;;;-146.25;100.00;52362.13;2111443;28;31428;-66
2023/10/09 02:47:55;;;;;;;8.13;3.60;;;;;;;-146.25;100.00;52356.03;2103505;28;20040;-65
2023/10/09 02:48:57;;;;;;;9.07;3.58;;;;;;;-146.25;100.00;52341.84;2095675;28;33005;-66
2023/10/09 02:50:07;;;;;;;9.88;3.38;;;;;;;-146.25;100.00;52339.81;2104016;28;27608;-66
2023/10/09 02:51:17;;;;;;;6.93;3.40;;;;;;;-146.25;100.00;52337.78;2105213;28;20087;-65
2023/10/09 02:52:24;;;;;;;9.90;4.13;;;;;;;-146.25;100.00;52360.09;2096855;28;20037;-65
2023/10/09 02:53:29;;;;;;;10.82;4.00;;;;;;;-146.25;100.00;52368.19;2103971;28;20100;-66
2023/10/09 02:54:41;;;;;;;10.10;3.63;;;;;;;-146.25;100.00;52343.88;2103200;28;31188;-66
2023/10/09 02:55:53;;;;;;;8.73;4.07;;;;;;;-146.25;100.00;52343.88;2096622;28;22628;-65
2023/10/09 02:56:56;;;;;;;8.73;4.03;;;;;;;-146.25;100.00;52351.97;2096407;28;26458;-65
2023/10/09 02:58:10;;;;;;;7.97;3.75;;;;;;;-146.25;100.00;52313.44;2096570;28;22080;-66
2023/10/09 02:59:13;;;;;;;14.40;4.38;;;;;;;-146.25;100.00;52337.78;2103245;28;25800;-66
2023/10/09 03:00:18;;;;;;;8.25;4.28;;;;;;;-146.25;100.00;52349.94;2103459;28;35538;-65
2023/10/09 03:01:23;;;;;;;11.07;4.22;;;;;;;-146.25;100.00;52321.56;2095650;28;20202;-65
2023/10/09 03:02:26;;;;;;;10.07;4.43;;;;;;;-146.25;100.00;52327.66;2096105;28;20041;-65
2023/10/09 03:03:28;;;;;;;11.10;4.45;;;;;;;-146.25;100.00;52295.19;2103389;28;30828;-66
2023/10/09 03:04:30;;;;;;;9.55;4.40;;;;;;;-146.25;100.00;52333.72;2095643;28;20405;-66
2023/10/09 03:05:32;;;;;;;10.20;4.10;;;;;;;-146.25;100.00;52333.72;2095073;28;30055;-66
2023/10/09 03:06:49;;;;;;;12.75;4.53;;;;;;;-146.25;100.00;52323.59;2096147;28;20041;-67
2023/10/09 03:07:53;;;;;;;13.20;5.00;;;;;;;-146.25;100.00;52327.66;2089626;28;20044;-67
2023/10/09 03:08:54;;;;;;;9.27;4.95;;;;;;;-146.25;100.00;52274.94;2095357;28;27376;-68
2023/10/09 03:09:56;;;;;;;9.20;4.07;;;;;;;-146.25;100.00;52319.53;2103951;28;20090;-68
2023/10/09 03:11:00;;;;;;;12.07;4.95;;;;;;;-146.25;100.00;52317.50;2103651;28;30594;-68
2023/10/09 03:12:04;;;;;;;8.35;4.70;;;;;;;-146.25;100.00;52323.59;2095758;28;20056;-68
2023/10/09 03:13:06;;;;;;;10.00;5.10;;;;;;;-146.25;100.00;52339.81;2094956;28;33380;-68
2023/10/09 03:14:08;;;;;;;9.95;5.22;;;;;;;-146.25;100.00;52341.84;2095358;28;31603;-67
2023/10/09 03:15:12;;;;;;;13.25;5.15;;;;;;;-146.25;100.00;52307.38;2103675;28;28014;-67
2023/10/09 03:16:20;;;;;;;10.43;5.50;;;;;;;-146.25;100.00;52335.75;2095365;28;31131;-67
2023/10/09 03:17:23;;;;;;;12.88;5.82;;;;;;;-146.25;100.00;52272.91;2096360;28;20041;-67
2023/10/09 03:18:25;;;;;;;11.73;5.25;;;;;;;-146.25;100.00;52325.63;2094911;28;36390;-67
2023/10/09 03:19:39;;;;;;;13.90;5.85;;;;;;;-146.25;100.00;52339.81;2095631;28;20048;-67
2023/10/09 03:20:44;;;;;;;10.90;5.18;;;;;;;-146.25;100.00;52307.38;2096026;28;28454;-67
2023/10/09 03:21:46;;;;;;;11.55;4.78;;;;;;;-146.25;100.00;52331.69;2096042;28;20827;-68
2023/10/09 03:22:49;;;;;;;11.18;5.50;;;;;;;-146.25;100.00;52349.94;2096131;28;27300;-68
2023/10/09 03:23:51;;;;;;;11.32;5.57;;;;;;;-146.25;100.00;52356.03;2094612;28;31197;-69
2023/10/09 03:24:53;;;;;;;10.77;5.30;;;;;;;-146.25;100.00;52327.66;2095293;28;31340;-68
2023/10/09 03:25:54;;;;;;;10.20;5.82;;;;;;;-146.25;100.00;52347.91;2096796;28;22393;-68
2023/10/09 03:27:07;;;;;;;10.65;5.28;;;;;;;-146.25;100.00;52303.31;2096010;28;31246;-69
2023/10/09 03:28:09;;;;;;;13.95;5.72;;;;;;;-146.25;100.00;52291.16;2095753;28;20874;-70
2023/10/09 03:29:11;;;;;;;12.93;6.55;;;;;;;-146.25;100.00;52343.88;2095190;28;30507;-67
2023/10/09 03:30:16;;;;;;;13.25;6.63;;;;;;;-146.25;100.00;52331.69;2096153;28;34589;-70
2023/10/09 03:31:18;;;;;;;12.25;6.50;;;;;;;-146.25;100.00;52327.66;2095980;28;34510;-69
2023/10/09 03:32:20;;;;;;;13.50;6.57;;;;;;;-146.25;100.00;52358.06;2095680;28;35996;-72
2023/10/09 03:33:23;;;;;;;14.25;7.78;;;;;;;-146.25;100.00;52339.81;2096150;28;20135;-73
2023/10/09 03:34:25;;;;;;;19.55;7.78;;;;;;;-146.25;100.00;52335.75;2095926;28;30856;-71
2023/10/09 03:35:27;;;;;;;15.85;8.30;;;;;;;-146.25;100.00;52362.13;2095529;28;34319;-69
2023/10/09 03:36:30;;;;;;;16.90;8.73;;;;;;;-146.25;100.00;52364.13;2096087;28;32347;-68
2023/10/09 03:37:35;;;;;;;19.45;8.32;;;;;;;-146.25;100.00;52349.94;2095372;28;37896;-68
2023/10/09 03:38:38;;;;;;;17.80;8.02;;;;;;;-146.25;100.00;52299.25;2095848;28;20041;-68
2023/10/09 03:39:46;;;;;;;16.42;9.50;;;;;;;-146.25;100.00;52349.94;2095587;28;35116;-68
2023/10/09 03:40:49;;;;;;;17.05;9.18;;;;;;;-146.25;100.00;52299.25;2096521;28;20052;-68
2023/10/09 03:41:54;;;;;;;24.00;9.48;;;;;;;-146.25;100.00;52339.81;2095836;28;30761;-68
2023/10/09 03:42:56;;;;;;;17.73;10.23;;;;;;;-146.25;100.00;52325.63;2094984;28;35582;-68
2023/10/09 03:43:58;;;;;;;19.08;10.45;;;;;;;-146.25;100.00;52339.81;2094927;28;34401;-68
2023/10/09 03:45:00;;;;;;;20.10;10.77;;;;;;;-146.25;100.00;52354.00;2095664;28;32095;-68
2023/10/09 03:46:03;;;;;;;18.77;9.63;;;;;;;-146.25;100.00;52317.50;2095456;28;34372;-68
2023/10/09 03:47:05;;;;;;;22.40;10.70;;;;;;;-146.25;100.00;52329.66;2095173;28;33075;-69
2023/10/09 03:48:21;;;;;;;25.38;11.57;;;;;;;-146.25;100.00;52327.66;2095857;28;37198;-68
2023/10/09 03:49:25;;;;;;;18.77;10.38;;;;;;;-146.25;100.00;52351.97;2095594;28;33000;-69
2023/10/09 03:50:35;;;;;;;19.77;10.82;;;;;;;-146.25;100.00;52327.66;2095306;28;36310;-67
2023/10/09 03:51:37;;;;;;;21.33;11.25;;;;;;;-146.25;100.00;52337.78;2095610;28;34575;-69
2023/10/09 03:52:40;;;;;;;25.27;11.63;;;;;;;-146.25;100.00;52327.66;2095792;28;34096;-68
2023/10/09 03:53:42;;;;;;;28.45;11.68;;;;;;;-146.25;100.00;52331.69;2095109;28;33289;-69
2023/10/09 03:54:49;;;;;;;23.73;11.88;;;;;;;-146.25;100.00;52327.66;2096207;28;33846;-69
2023/10/09 03:55:51;;;;;;;21.05;11.43;;;;;;;-146.25;100.00;52323.59;2097190;28;35498;-69
2023/10/09 03:56:54;;;;;;;30.25;12.57;;;;;;;-146.25;100.00;52313.44;2097002;28;34903;-68
2023/10/09 03:58:00;;;;;;;29.77;12.82;;;;;;;-146.25;100.00;52274.94;2096875;28;36916;-68
2023/10/09 03:59:05;;;;;;;28.63;12.70;;;;;;;-146.25;100.00;52343.88;2096099;28;30945;-68
2023/10/09 04:00:13;;;;;;;23.10;11.93;;;;;;;-146.25;100.00;52329.66;2103614;28;31008;-67
2023/10/09 04:01:28;;;;;;;36.92;13.30;;;;;;;-146.25;100.00;52321.56;2105610;28;33623;-68
2023/10/09 04:02:31;;;;;;;29.40;13.40;;;;;;;-146.25;100.00;52364.13;2104985;28;33946;-67
2023/10/09 04:03:35;;;;;;;30.70;13.32;;;;;;;-146.25;100.00;52341.84;2104951;28;20052;-68
2023/10/09 04:04:37;;;;;;;27.45;12.45;;;;;;;-146.25;100.00;52307.38;2104507;28;35207;-69
2023/10/09 04:05:43;;;;;;;28.67;12.68;;;;;;;-146.25;100.00;52366.16;2104958;28;35178;-68
2023/10/09 04:06:46;;;;;;;27.85;13.50;;;;;;;-146.25;100.00;52372.25;2105560;28;34641;-68
2023/10/09 04:07:49;;;;;;;25.52;12.82;;;;;;;-146.25;100.00;52331.69;2105251;28;34046;-69
2023/10/09 04:08:51;;;;;;;30.05;13.02;;;;;;;-146.25;100.00;52347.91;2104956;28;20135;-67
2023/10/09 04:10:26;;;;;;;27.75;13.75;;;;;;;-146.25;100.00;52382.38;2104920;28;36993;-68
2023/10/09 04:11:22;;;;;;;25.92;13.48;;;;;;;-146.25;100.00;52366.16;2106636;28;20853;-68
2023/10/09 04:12:30;;;;;;;30.23;13.70;;;;;;;-146.25;100.00;52388.47;2105566;28;34835;-68
2023/10/09 04:13:33;;;;;;;28.73;13.48;;;;;;;-146.25;100.00;52366.16;2105510;28;26847;-68
2023/10/09 04:14:57;;;;;;;29.38;13.13;;;;;;;-146.25;100.00;52339.81;2105439;28;30125;-68
2023/10/09 04:16:09;;;;;;;34.90;14.60;;;;;;;-146.25;100.00;52323.59;2105393;28;38285;-67
2023/10/09 04:18:28;;;;;;;31.33;14.73;;;;;;;-146.25;100.00;52315.47;2104828;28;39055;-67
2023/10/09 04:19:38;;;;;;;38.78;15.27;;;;;;;-146.25;100.00;52356.03;2104968;28;32883;-67
2023/10/09 04:22:06;;;;;;;;;;;;;;;-146.25;100.00;52317.50;2105616;28;36098;-68
2023/10/09 04:23:08;;;;;;;33.30;14.95;;;;;;;-146.25;100.00;52335.75;2105741;28;20043;-68
2023/10/09 04:25:14;;;;;;;40.40;16.23;;;;;;;-146.25;100.00;52343.88;2104860;28;29509;-68
2023/10/09 04:26:16;;;;;;;43.88;16.95;;;;;;;-146.25;100.00;52321.56;2104648;28;31494;-68
2023/10/09 04:27:26;;;;;;;42.25;16.20;;;;;;;-146.25;100.00;52356.03;2105468;28;36586;-68
2023/10/09 04:28:29;;;;;;;36.45;16.02;;;;;;;-146.25;100.00;52370.22;2105080;28;31993;-68
2023/10/09 04:29:46;;;;;;;40.05;15.85;;;;;;;-146.25;100.00;52329.66;2104249;28;35697;-68
2023/10/09 04:30:55;;;;;;;39.67;16.17;;;;;;;-146.25;100.00;52360.09;2104878;28;31077;-68
2023/10/09 04:32:00;;;;;;;41.55;16.50;;;;;;;-146.25;100.00;52331.69;2112890;28;32818;-67
2023/10/09 04:33:11;;;;;;;35.50;15.88;;;;;;;-146.25;100.00;52343.88;2112232;28;37403;-68
2023/10/09 04:34:22;;;;;;;39.72;17.40;;;;;;;-146.25;100.00;52356.03;2105734;28;20198;-68
2023/10/09 04:35:24;;;;;;;37.58;16.48;;;;;;;-146.25;100.00;52327.66;2105205;28;33923;-67
2023/10/09 04:36:35;;;;;;;44.10;19.48;;;;;;;-146.25;100.00;52329.66;2105593;28;32600;-67
2023/10/09 04:37:37;;;;;;;42.20;17.02;;;;;;;-146.25;100.00;52351.97;2105098;28;34697;-68
2023/10/09 04:38:39;;;;;;;41.92;18.17;;;;;;;-146.25;100.00;52360.09;2104251;28;37884;-66
2023/10/09 04:40:51;;;;;;;44.80;17.52;;;;;;;-146.25;100.00;52325.63;2105170;28;33606;-69
2023/10/09 04:41:53;;;;;;;41.50;18.02;;;;;;;-146.25;100.00;52347.91;2104653;28;37013;-69
2023/10/09 04:42:58;;;;;;;46.75;19.98;;;;;;;-146.25;100.00;52337.78;2105232;28;34364;-68
2023/10/09 04:44:19;;;;;;;45.38;18.83;;;;;;;-146.25;100.00;52351.97;2105310;28;20052;-68
2023/10/09 04:45:59;;;;;;;51.78;18.98;;;;;;;-146.25;100.00;52329.66;2105331;28;20082;-69
2023/10/09 04:48:32;;;;;;;45.45;17.35;;;;;;;-146.25;100.00;52327.66;2105958;28;20040;-69
2023/10/09 04:51:20;;;;;;;51.15;20.08;;;;;;;-146.25;100.00;52376.31;2104515;28;34510;-69
2023/10/09 04:52:51;;;;;;;48.28;19.40;;;;;;;-146.25;100.00;52305.34;2104750;28;35128;-69
2023/10/09 04:53:50;;;;;;;52.42;19.98;;;;;;;-146.25;100.00;52335.75;2102666;28;32214;-69
2023/10/09 04:56:15;;;;;;;55.42;20.30;;;;;;;-146.25;100.00;52327.66;2105511;28;20163;-69
2023/10/09 04:57:17;;;;;;;64.28;20.95;;;;;;;-146.25;100.00;52343.88;2104371;28;40558;-69
2023/10/09 04:58:25;;;;;;;61.58;21.42;;;;;;;-146.25;100.00;52356.03;2105663;28;20032;-68
2023/10/09 04:59:30;;;;;;;63.38;22.58;;;;;;;-146.25;100.00;52380.38;2104817;28;30894;-68
2023/10/09 05:01:36;;;;;;;66.90;22.90;;;;;;;-146.25;100.00;52327.66;2097112;28;20096;-68
2023/10/09 05:02:38;;;;;;;70.38;23.20;;;;;;;-146.25;100.00;52333.72;2104691;28;36545;-69
2023/10/09 05:04:43;;;;;;;73.22;23.48;;;;;;;-146.25;100.00;52341.84;2104014;28;33313;-68
2023/10/09 05:06:56;;;;;;;77.05;25.17;;;;;;;-146.25;100.00;52287.09;2104000;28;20229;-67
2023/10/09 05:07:58;;;;;;;73.80;24.50;;;;;;;-146.25;100.00;52315.47;2104051;28;36350;-68
2023/10/09 05:09:11;;;;;;;81.28;25.50;;;;;;;-146.25;100.00;52360.09;2104746;28;38679;-68
2023/10/09 05:10:17;;;;;;;79.93;25.58;;;;;;;-146.25;100.00;52319.53;2104732;28;35770;-67
2023/10/09 05:11:52;;;;;;;86.25;26.52;;;;;;;-146.25;100.00;52325.63;2104880;28;37149;-68
2023/10/09 05:12:57;;;;;;;85.82;25.08;;;;;;;-146.25;100.00;52321.56;2105312;28;32490;-68
2023/10/09 05:14:11;;;;;;;86.80;26.02;;;;;;;-146.25;100.00;52343.88;2104883;28;36638;-68
2023/10/09 05:15:14;;;;;;;85.97;26.15;;;;;;;-146.25;100.00;52339.81;2105559;28;20033;-68
2023/10/09 05:16:22;;;;;;;86.22;26.55;;;;;;;-146.25;100.00;52345.91;2105789;28;20103;-66
2023/10/09 05:17:25;;;;;;;85.72;26.75;;;;;;;-146.25;100.00;52360.09;2104681;28;32700;-68
2023/10/09 05:18:36;;;;;;;83.05;26.30;;;;;;;-146.25;100.00;52272.91;2103813;28;34659;-68
2023/10/09 05:19:54;;;;;;;88.50;26.73;;;;;;;-146.25;100.00;52368.19;2111132;28;36200;-67
2023/10/09 05:21:05;;;;;;;91.80;28.90;;;;;;;-146.25;100.00;52343.88;2104932;28;33857;-67
2023/10/09 05:22:29;;;;;;;102.10;28.67;;;;;;;-146.25;100.00;52370.22;2095548;28;35912;-68
2023/10/09 05:23:44;;;;;;;88.97;27.50;;;;;;;-146.25;100.00;52323.59;2101343;28;20830;-67
2023/10/09 05:24:47;;;;;;;101.07;29.38;;;;;;;-146.25;100.00;52345.91;2103886;28;38340;-65